createdAt,value
2023-09-01T00:02:22.564Z,13.52
2023-09-01T00:04:56.758Z,13.54
2023-09-01T00:07:23.567Z,13.55
2023-09-01T00:09:53.701Z,13.58
2023-09-01T00:12:20.556Z,13.60
2023-09-01T00:14:47.626Z,13.63
2023-09-01T00:17:15.151Z,13.68
2023-09-01T00:19:42.184Z,13.73
2023-09-01T00:22:09.135Z,13.77
2023-09-01T00:24:36.910Z,13.83
2023-09-01T00:27:04.246Z,13.88
2023-09-01T00:29:34.163Z,13.91
2023-09-01T00:32:01.858Z,13.97
2023-09-01T00:34:31.045Z,14.00
2023-09-01T00:36:58.289Z,14.04
2023-09-01T00:39:25.541Z,14.08
2023-09-01T00:41:52.390Z,14.14
2023-09-01T00:44:19.325Z,14.20
2023-09-01T00:46:47.226Z,14.23
2023-09-01T00:49:18.593Z,14.26
2023-09-01T00:51:47.740Z,14.31
2023-09-01T00:54:15.742Z,14.30
2023-09-01T00:56:44.110Z,14.36
2023-09-01T00:59:11.764Z,14.38
2023-09-01T01:01:39.141Z,14.40
2023-09-01T01:04:08.475Z,14.41
2023-09-01T01:06:39.862Z,14.42
2023-09-01T01:09:27.071Z,14.42
2023-09-01T01:12:02.467Z,14.45
2023-09-01T01:14:52.102Z,14.53
2023-09-01T01:17:19.918Z,14.61
2023-09-01T01:19:51.587Z,14.61
2023-09-01T01:22:35.257Z,14.61
2023-09-01T01:25:09.062Z,14.57
2023-09-01T01:27:36.540Z,14.54
2023-09-01T01:30:05.826Z,14.42
2023-09-01T01:32:33.700Z,14.37
2023-09-01T01:35:20.177Z,14.28
2023-09-01T01:38:17.398Z,14.28
2023-09-01T01:40:48.577Z,14.27
2023-09-01T01:43:21.857Z,14.25
2023-09-01T01:45:50.391Z,14.25
2023-09-01T01:48:17.798Z,14.26
2023-09-01T01:50:45.481Z,14.28
2023-09-01T01:53:13.706Z,14.28
2023-09-01T01:55:40.732Z,14.30
2023-09-01T01:58:07.661Z,14.33
2023-09-01T02:00:35.733Z,14.36
2023-09-01T02:03:05.352Z,14.37
2023-09-01T02:05:33.330Z,14.40
2023-09-01T02:08:00.261Z,14.42
2023-09-01T02:10:28.148Z,14.45
2023-09-01T02:12:55.815Z,14.43
2023-09-01T02:15:22.757Z,14.40
2023-09-01T02:17:49.543Z,14.35
2023-09-01T02:20:19.163Z,14.30
2023-09-01T02:22:49.097Z,14.28
2023-09-01T02:25:16.034Z,14.27
2023-09-01T02:27:43.686Z,14.25
2023-09-01T02:30:12.446Z,14.25
2023-09-01T02:32:40.384Z,14.19
2023-09-01T02:35:09.225Z,14.10
2023-09-01T02:37:37.616Z,14.06
2023-09-01T02:40:11.650Z,14.04
2023-09-01T02:42:43.186Z,14.02
2023-09-01T02:45:14.463Z,13.97
2023-09-01T02:47:41.623Z,13.91
2023-09-01T02:50:09.151Z,13.84
2023-09-01T02:52:36.482Z,13.77
2023-09-01T02:55:07.011Z,13.72
2023-09-01T02:57:34.180Z,13.67
2023-09-01T03:00:01.785Z,13.61
2023-09-01T03:02:29.766Z,13.55
2023-09-01T03:04:57.664Z,13.56
2023-09-01T03:07:25.310Z,13.57
2023-09-01T03:09:52.391Z,13.53
2023-09-01T03:12:19.334Z,13.36
2023-09-01T03:14:46.474Z,13.32
2023-09-01T03:17:13.427Z,13.32
2023-09-01T03:19:40.255Z,13.28
2023-09-01T03:22:07.130Z,13.25
2023-09-01T03:24:35.280Z,13.23
2023-09-01T03:27:02.429Z,13.25
2023-09-01T03:29:29.581Z,13.29
2023-09-01T03:31:56.490Z,13.29
2023-09-01T03:34:24.509Z,13.18
2023-09-01T03:36:51.445Z,13.14
2023-09-01T03:39:18.998Z,13.10
2023-09-01T03:41:46.152Z,13.07
2023-09-01T03:44:13.085Z,13.05
2023-09-01T03:46:40.974Z,13.02
2023-09-01T03:49:07.816Z,12.98
2023-09-01T03:51:34.644Z,12.96
2023-09-01T03:54:01.598Z,12.93
2023-09-01T03:56:29.239Z,12.91
2023-09-01T03:58:57.323Z,12.93
2023-09-01T04:01:24.210Z,12.92
2023-09-01T04:03:51.352Z,12.92
2023-09-01T04:06:18.475Z,12.93
2023-09-01T04:08:45.514Z,12.92
2023-09-01T04:11:12.469Z,12.88
2023-09-01T04:13:39.260Z,12.91
2023-09-01T04:16:06.605Z,12.90
2023-09-01T04:18:34.475Z,12.90
2023-09-01T04:21:02.453Z,12.92
2023-09-01T04:23:29.390Z,12.93
2023-09-01T04:25:57.470Z,12.94
2023-09-01T04:28:24.986Z,12.93
2023-09-01T04:30:51.928Z,12.98
2023-09-01T04:33:19.371Z,12.97
2023-09-01T04:35:57.070Z,12.98
2023-09-01T04:38:24.120Z,12.98
2023-09-01T04:40:58.521Z,13.01
2023-09-01T04:43:27.458Z,13.11
2023-09-01T04:45:56.160Z,13.13
2023-09-01T04:48:24.628Z,13.17
2023-09-01T04:50:52.364Z,13.25
2023-09-01T04:53:21.469Z,13.26
2023-09-01T04:55:51.472Z,13.29
2023-09-01T04:58:18.939Z,13.31
2023-09-01T05:00:46.159Z,13.34
2023-09-01T05:03:14.246Z,13.32
2023-09-01T05:05:42.331Z,13.32
2023-09-01T05:08:09.488Z,13.38
2023-09-01T05:10:36.824Z,13.42
2023-09-01T05:13:05.116Z,13.47
2023-09-01T05:15:32.476Z,13.54
2023-09-01T05:18:00.691Z,13.59
2023-09-01T05:20:28.303Z,13.66
2023-09-01T05:22:55.565Z,13.72
2023-09-01T05:25:23.317Z,13.78
2023-09-01T05:27:50.475Z,13.82
2023-09-01T05:30:18.153Z,13.90
2023-09-01T05:32:45.854Z,13.96
2023-09-01T05:35:13.057Z,14.03
2023-09-01T05:37:40.163Z,14.06
2023-09-01T05:40:09.075Z,14.11
2023-09-01T05:42:36.143Z,14.18
2023-09-01T05:45:03.594Z,14.22
2023-09-01T05:47:30.946Z,14.28
2023-09-01T05:49:58.409Z,14.35
2023-09-01T05:52:26.694Z,14.45
2023-09-01T05:54:53.934Z,14.58
2023-09-01T05:57:21.093Z,14.67
2023-09-01T05:59:48.341Z,14.77
2023-09-01T06:02:15.430Z,14.88
2023-09-01T06:04:42.850Z,14.97
2023-09-01T06:07:10.111Z,15.04
2023-09-01T06:09:37.237Z,15.14
2023-09-01T06:12:05.109Z,15.20
2023-09-01T06:14:32.367Z,15.26
2023-09-01T06:17:00.009Z,15.31
2023-09-01T06:19:27.297Z,15.35
2023-09-01T06:21:54.518Z,15.43
2023-09-01T06:24:21.784Z,15.51
2023-09-01T06:26:49.185Z,15.62
2023-09-01T06:29:16.901Z,15.74
2023-09-01T06:31:44.533Z,15.86
2023-09-01T06:34:11.903Z,15.99
2023-09-01T06:36:39.180Z,16.15
2023-09-01T06:39:06.928Z,16.33
2023-09-01T06:41:34.698Z,16.51
2023-09-01T06:44:03.283Z,16.66
2023-09-01T06:46:30.734Z,16.75
2023-09-01T06:48:57.981Z,16.78
2023-09-01T06:51:25.173Z,16.80
2023-09-01T06:53:52.829Z,16.79
2023-09-01T06:56:20.282Z,16.86
2023-09-01T06:58:47.828Z,17.00
2023-09-01T07:01:17.391Z,17.19
2023-09-01T07:03:49.778Z,17.37
2023-09-01T07:06:28.432Z,17.55
2023-09-01T07:08:56.385Z,17.69
2023-09-01T07:11:23.751Z,17.81
2023-09-01T07:13:56.404Z,17.94
2023-09-01T07:16:24.759Z,18.10
2023-09-01T07:18:51.933Z,18.28
2023-09-01T07:21:18.897Z,18.47
2023-09-01T07:23:48.393Z,18.62
2023-09-01T07:26:16.462Z,18.75
2023-09-01T07:28:44.128Z,18.88
2023-09-01T07:31:13.379Z,19.01
2023-09-01T07:33:44.302Z,19.12
2023-09-01T07:36:12.680Z,19.26
2023-09-01T07:38:40.923Z,19.37
2023-09-01T07:41:09.559Z,19.51
2023-09-01T07:43:37.173Z,19.67
2023-09-01T07:46:04.551Z,19.83
2023-09-01T07:48:32.545Z,19.94
2023-09-01T07:51:00.521Z,20.04
2023-09-01T07:53:27.834Z,20.16
2023-09-01T07:55:56.226Z,20.28
2023-09-01T07:58:23.484Z,20.39
2023-09-01T08:00:52.825Z,20.49
2023-09-01T08:03:20.583Z,20.61
2023-09-01T08:05:48.197Z,20.71
2023-09-01T08:08:16.150Z,20.81
2023-09-01T08:10:43.919Z,20.93
2023-09-01T08:13:12.104Z,21.02
2023-09-01T08:15:40.560Z,21.05
2023-09-01T08:18:08.148Z,21.10
2023-09-01T08:20:37.205Z,21.19
2023-09-01T08:23:06.133Z,21.32
2023-09-01T08:25:36.639Z,21.42
2023-09-01T08:28:05.949Z,21.54
2023-09-01T08:30:35.602Z,21.61
2023-09-01T08:33:05.092Z,21.69
2023-09-01T08:35:33.242Z,21.78
2023-09-01T08:38:01.211Z,21.85
2023-09-01T08:40:28.248Z,21.92
2023-09-01T08:42:57.862Z,22.00
2023-09-01T08:45:27.049Z,22.09
2023-09-01T08:47:54.379Z,22.16
2023-09-01T08:50:22.180Z,22.23
2023-09-01T08:52:49.942Z,22.26
2023-09-01T08:55:18.847Z,22.36
2023-09-01T08:57:49.858Z,22.45
2023-09-01T09:00:17.467Z,22.55
2023-09-01T09:03:04.916Z,22.59
2023-09-01T09:05:34.802Z,22.70
2023-09-01T09:08:06.808Z,22.78
2023-09-01T09:10:36.167Z,22.85
2023-09-01T09:13:26.202Z,22.93
2023-09-01T09:16:09.376Z,22.90
2023-09-01T09:18:38.109Z,22.96
2023-09-01T09:21:29.350Z,22.98
2023-09-01T09:24:15.293Z,23.03
2023-09-01T09:26:46.179Z,23.08
2023-09-01T09:29:15.374Z,23.07
2023-09-01T09:31:42.491Z,23.05
2023-09-01T09:34:16.466Z,23.08
2023-09-01T09:36:46.500Z,23.10
2023-09-01T09:39:28.028Z,23.09
2023-09-01T09:41:57.536Z,23.18
2023-09-01T09:44:34.625Z,23.25
2023-09-01T09:47:11.133Z,23.35
2023-09-01T09:49:39.069Z,23.39
2023-09-01T09:52:10.507Z,23.40
2023-09-01T09:54:39.423Z,23.35
2023-09-01T09:57:13.270Z,23.25
2023-09-01T09:59:56.030Z,23.22
2023-09-01T10:02:37.544Z,23.25
2023-09-01T10:05:05.804Z,23.28
2023-09-01T10:07:34.513Z,23.35
2023-09-01T10:10:03.156Z,23.35
2023-09-01T10:12:30.823Z,23.30
2023-09-01T10:14:58.689Z,23.32
2023-09-01T10:17:26.799Z,23.44
2023-09-01T10:19:55.443Z,23.56
2023-09-01T10:22:23.019Z,23.64
2023-09-01T10:25:10.035Z,23.69
2023-09-01T10:27:37.784Z,23.66
2023-09-01T10:30:44.693Z,23.66
2023-09-01T10:33:13.574Z,23.72
2023-09-01T10:35:48.501Z,23.79
2023-09-01T10:38:21.376Z,23.88
2023-09-01T10:40:55.455Z,23.93
2023-09-01T10:43:37.859Z,23.95
2023-09-01T10:46:14.645Z,23.98
2023-09-01T10:48:52.918Z,24.02
2023-09-01T10:51:25.592Z,24.09
2023-09-01T10:53:54.898Z,24.15
2023-09-01T10:56:23.395Z,24.19
2023-09-01T10:58:53.214Z,24.20
2023-09-01T11:01:39.233Z,24.22
2023-09-01T11:04:16.664Z,24.25
2023-09-01T11:07:00.998Z,24.26
2023-09-01T11:09:37.438Z,24.24
2023-09-01T11:12:06.992Z,24.24
2023-09-01T11:14:37.114Z,24.29
2023-09-01T11:17:04.750Z,24.36
2023-09-01T11:19:48.411Z,24.46
2023-09-01T11:22:16.055Z,24.48
2023-09-01T11:24:47.130Z,24.52
2023-09-01T11:27:14.663Z,24.55
2023-09-01T11:29:42.331Z,24.58
2023-09-01T11:32:10.292Z,24.68
2023-09-01T11:34:39.181Z,24.74
2023-09-01T11:37:07.983Z,24.74
2023-09-01T11:39:36.755Z,24.74
2023-09-01T11:42:04.963Z,24.71
2023-09-01T11:44:32.222Z,24.63
2023-09-01T11:46:59.648Z,24.54
2023-09-01T11:49:27.364Z,24.42
2023-09-01T11:52:00.102Z,24.28
2023-09-01T11:54:40.679Z,24.14
2023-09-01T11:57:15.280Z,24.03
2023-09-01T11:59:47.051Z,24.01
2023-09-01T12:02:18.814Z,23.96
2023-09-01T12:04:50.288Z,23.92
2023-09-01T12:07:31.534Z,23.84
2023-09-01T12:09:59.104Z,23.78
2023-09-01T12:12:37.801Z,23.76
2023-09-01T12:15:06.108Z,23.75
2023-09-01T12:17:35.801Z,23.66
2023-09-01T12:20:03.397Z,23.74
2023-09-01T12:22:31.215Z,23.89
2023-09-01T12:25:01.312Z,23.97
2023-09-01T12:27:31.814Z,24.04
2023-09-01T12:29:59.273Z,24.06
2023-09-01T12:32:28.565Z,24.09
2023-09-01T12:34:55.964Z,24.19
2023-09-01T12:37:23.496Z,24.30
2023-09-01T12:39:51.828Z,24.41
2023-09-01T12:42:19.107Z,24.54
2023-09-01T12:44:46.660Z,24.64
2023-09-01T12:47:14.053Z,24.78
2023-09-01T12:49:44.496Z,24.90
2023-09-01T12:52:11.873Z,24.93
2023-09-01T12:54:39.047Z,24.97
2023-09-01T12:57:07.467Z,24.96
2023-09-01T12:59:36.083Z,25.05
2023-09-01T13:02:04.692Z,25.15
2023-09-01T13:04:33.851Z,25.24
2023-09-01T13:07:04.497Z,25.28
2023-09-01T13:09:32.560Z,25.31
2023-09-01T13:11:59.833Z,25.31
2023-09-01T13:14:28.001Z,25.32
2023-09-01T13:16:55.357Z,25.32
2023-09-01T13:19:22.471Z,25.32
2023-09-01T13:21:49.451Z,25.28
2023-09-01T13:24:16.550Z,25.18
2023-09-01T13:26:44.566Z,25.03
2023-09-01T13:29:11.918Z,24.86
2023-09-01T13:31:39.066Z,24.77
2023-09-01T13:34:07.866Z,24.73
2023-09-01T13:36:35.250Z,24.73
2023-09-01T13:39:02.467Z,24.68
2023-09-01T13:41:30.852Z,24.72
2023-09-01T13:43:58.431Z,24.75
2023-09-01T13:46:27.633Z,24.75
2023-09-01T13:48:56.805Z,24.73
2023-09-01T13:51:24.981Z,24.72
2023-09-01T13:53:55.322Z,24.67
2023-09-01T13:56:25.434Z,24.65
2023-09-01T13:58:55.584Z,24.65
2023-09-01T14:01:28.136Z,24.69
2023-09-01T14:03:57.127Z,24.74
2023-09-01T14:06:26.607Z,24.81
2023-09-01T14:08:55.301Z,24.84
2023-09-01T14:11:26.124Z,24.85
2023-09-01T14:13:53.789Z,24.85
2023-09-01T14:16:32.118Z,24.81
2023-09-01T14:19:00.803Z,24.78
2023-09-01T14:21:27.836Z,24.81
2023-09-01T14:23:55.195Z,24.86
2023-09-01T14:26:23.171Z,24.91
2023-09-01T14:28:51.155Z,24.93
2023-09-01T14:31:19.496Z,24.89
2023-09-01T14:33:48.657Z,24.83
2023-09-01T14:36:16.383Z,24.76
2023-09-01T14:38:43.355Z,24.69
2023-09-01T14:41:20.710Z,24.59
2023-09-01T14:43:48.302Z,24.50
2023-09-01T14:46:18.371Z,24.40
2023-09-01T14:48:47.356Z,24.34
2023-09-01T14:51:15.955Z,24.26
2023-09-01T14:53:45.682Z,24.14
2023-09-01T14:56:15.633Z,24.07
2023-09-01T14:58:43.790Z,23.95
2023-09-01T15:01:10.923Z,23.88
2023-09-01T15:03:38.767Z,23.74
2023-09-01T15:06:06.449Z,23.60
2023-09-01T15:08:33.854Z,23.49
2023-09-01T15:11:04.988Z,23.46
2023-09-01T15:13:32.914Z,23.44
2023-09-01T15:16:00.019Z,23.42
2023-09-01T15:18:27.624Z,23.39
2023-09-01T15:21:21.403Z,23.40
2023-09-01T15:23:50.374Z,23.43
2023-09-01T15:26:18.054Z,23.41
2023-09-01T15:28:52.688Z,23.42
2023-09-01T15:31:20.561Z,23.44
2023-09-01T15:33:48.116Z,23.44
2023-09-01T15:36:15.876Z,23.43
2023-09-01T15:38:44.153Z,23.41
2023-09-01T15:41:12.642Z,23.39
2023-09-01T15:43:39.978Z,23.36
2023-09-01T15:46:10.888Z,23.32
2023-09-01T15:48:41.561Z,23.27
2023-09-01T15:51:09.251Z,23.25
2023-09-01T15:53:36.876Z,23.20
2023-09-01T15:56:05.729Z,23.14
2023-09-01T15:58:33.318Z,23.09
2023-09-01T16:01:14.048Z,23.03
2023-09-01T16:03:53.828Z,22.96
2023-09-01T16:06:26.944Z,22.89
2023-09-01T16:08:56.027Z,22.82
2023-09-01T16:11:23.281Z,22.76
2023-09-01T16:13:52.496Z,22.71
2023-09-01T16:16:24.243Z,22.65
2023-09-01T16:18:52.060Z,22.59
2023-09-01T16:21:23.697Z,22.53
2023-09-01T16:23:56.662Z,22.49
2023-09-01T16:26:24.534Z,22.48
2023-09-01T16:28:52.521Z,22.43
2023-09-01T16:31:23.631Z,22.37
2023-09-01T16:33:53.439Z,22.30
2023-09-01T16:36:20.929Z,22.22
2023-09-01T16:38:49.595Z,22.14
2023-09-01T16:41:17.590Z,22.04
2023-09-01T16:43:45.430Z,22.01
2023-09-01T16:46:13.081Z,21.96
2023-09-01T16:48:42.106Z,21.90
2023-09-01T16:51:09.453Z,21.85
2023-09-01T16:53:36.861Z,21.81
2023-09-01T16:56:04.485Z,21.78
2023-09-01T16:58:31.654Z,21.70
2023-09-01T17:00:59.072Z,21.62
2023-09-01T17:03:26.316Z,21.57
2023-09-01T17:05:53.729Z,21.48
2023-09-01T17:08:20.884Z,21.39
2023-09-01T17:10:51.492Z,21.23
2023-09-01T17:13:18.674Z,21.26
2023-09-01T17:15:46.328Z,21.17
2023-09-01T17:18:13.778Z,21.12
2023-09-01T17:21:01.020Z,21.05
2023-09-01T17:23:29.194Z,20.98
2023-09-01T17:25:56.334Z,20.97
2023-09-01T17:28:24.262Z,20.90
2023-09-01T17:30:51.545Z,20.84
2023-09-01T17:33:19.733Z,20.80
2023-09-01T17:35:49.584Z,20.69
2023-09-01T17:38:17.421Z,20.59
2023-09-01T17:40:45.287Z,20.51
2023-09-01T17:43:12.691Z,20.41
2023-09-01T17:45:40.442Z,20.33
2023-09-01T17:48:07.945Z,20.27
2023-09-01T17:50:35.950Z,20.24
2023-09-01T17:53:06.100Z,20.19
2023-09-01T17:55:50.263Z,20.15
2023-09-01T17:58:19.017Z,20.02
2023-09-01T18:00:49.610Z,20.04
2023-09-01T18:03:19.047Z,19.98
2023-09-01T18:05:47.363Z,19.94
2023-09-01T18:08:15.126Z,19.89
2023-09-01T18:10:42.885Z,19.87
2023-09-01T18:13:12.625Z,19.84
2023-09-01T18:15:39.973Z,19.81
2023-09-01T18:18:07.995Z,19.79
2023-09-01T18:20:35.437Z,19.76
2023-09-01T18:23:03.879Z,19.71
2023-09-01T18:25:33.891Z,19.64
2023-09-01T18:28:02.166Z,19.60
2023-09-01T18:30:30.357Z,19.53
2023-09-01T18:33:07.530Z,19.48
2023-09-01T18:35:36.952Z,19.40
2023-09-01T18:38:13.874Z,19.35
2023-09-01T18:40:41.280Z,19.28
2023-09-01T18:43:10.875Z,19.23
2023-09-01T18:45:39.979Z,19.21
2023-09-01T18:48:12.522Z,19.18
2023-09-01T18:50:43.891Z,19.15
2023-09-01T18:53:12.674Z,19.13
2023-09-01T18:55:45.710Z,19.13
2023-09-01T18:58:14.712Z,19.13
2023-09-01T19:00:43.628Z,19.12
2023-09-01T19:03:11.308Z,19.12
2023-09-01T19:05:42.630Z,19.14
2023-09-01T19:08:13.366Z,19.15
2023-09-01T19:10:42.129Z,19.17
2023-09-01T19:13:11.732Z,19.17
2023-09-01T19:15:39.873Z,19.15
2023-09-01T19:18:16.067Z,19.15
2023-09-01T19:20:44.038Z,19.12
2023-09-01T19:23:30.305Z,19.09
2023-09-01T19:26:01.914Z,19.08
2023-09-01T19:28:37.843Z,19.08
2023-09-01T19:31:10.284Z,19.05
2023-09-01T19:33:41.591Z,19.02
2023-09-01T19:36:12.064Z,19.02
2023-09-01T19:38:41.637Z,19.01
2023-09-01T19:41:10.592Z,18.99
2023-09-01T19:43:41.536Z,18.97
2023-09-01T19:46:09.352Z,18.96
2023-09-01T19:48:38.918Z,18.93
2023-09-01T19:51:08.490Z,18.93
2023-09-01T19:53:39.370Z,18.90
2023-09-01T19:56:15.690Z,18.88
2023-09-01T19:58:45.252Z,18.87
2023-09-01T20:01:22.788Z,18.87
2023-09-01T20:03:51.717Z,18.88
2023-09-01T20:06:25.877Z,18.87
2023-09-01T20:08:57.284Z,18.86
2023-09-01T20:11:26.207Z,18.88
2023-09-01T20:13:55.169Z,18.88
2023-09-01T20:16:26.803Z,18.88
2023-09-01T20:18:54.264Z,18.90
2023-09-01T20:21:22.542Z,18.88
2023-09-01T20:23:50.807Z,18.81
2023-09-01T20:26:19.492Z,18.80
2023-09-01T20:28:47.073Z,18.77
2023-09-01T20:31:15.552Z,18.75
2023-09-01T20:33:43.436Z,18.73
2023-09-01T20:36:11.189Z,18.73
2023-09-01T20:38:40.658Z,18.75
2023-09-01T20:41:08.876Z,18.75
2023-09-01T20:43:36.458Z,18.73
2023-09-01T20:46:05.056Z,18.69
2023-09-01T20:48:32.772Z,18.66
2023-09-01T20:51:00.118Z,18.63
2023-09-01T20:53:28.311Z,18.61
2023-09-01T20:55:56.064Z,18.59
2023-09-01T20:58:23.513Z,18.57
2023-09-01T21:00:50.769Z,18.56
2023-09-01T21:03:18.834Z,18.54
2023-09-01T21:05:49.339Z,18.50
2023-09-01T21:08:17.127Z,18.46
2023-09-01T21:10:44.898Z,18.44
2023-09-01T21:13:12.718Z,18.40
2023-09-01T21:15:41.160Z,18.35
2023-09-01T21:18:08.414Z,18.30
2023-09-01T21:20:35.749Z,18.28
2023-09-01T21:23:04.443Z,18.23
2023-09-01T21:25:35.166Z,18.15
2023-09-01T21:28:02.929Z,18.09
2023-09-01T21:30:30.337Z,18.06
2023-09-01T21:32:57.734Z,18.02
2023-09-01T21:35:31.030Z,18.00
2023-09-01T21:37:59.615Z,17.96
2023-09-01T21:40:27.078Z,17.95
2023-09-01T21:42:58.063Z,17.96
2023-09-01T21:45:26.450Z,17.97
2023-09-01T21:47:56.382Z,18.00
2023-09-01T21:50:24.177Z,18.02
2023-09-01T21:52:52.645Z,18.02
2023-09-01T21:55:20.154Z,17.96
2023-09-01T21:57:49.001Z,17.91
2023-09-01T22:00:16.914Z,17.97
2023-09-01T22:02:44.840Z,17.98
2023-09-01T22:05:13.015Z,17.99
2023-09-01T22:07:40.281Z,18.00
2023-09-01T22:10:09.555Z,18.01
2023-09-01T22:12:36.924Z,18.02
2023-09-01T22:15:04.595Z,18.01
2023-09-01T22:17:31.889Z,18.03
2023-09-01T22:19:59.199Z,18.02
2023-09-01T22:22:26.353Z,18.02
2023-09-01T22:24:53.501Z,18.00
2023-09-01T22:27:20.637Z,18.01
2023-09-01T22:29:47.901Z,18.02
2023-09-01T22:32:15.179Z,18.02
2023-09-01T22:34:42.805Z,18.02
2023-09-01T22:37:10.969Z,18.02
2023-09-01T22:39:38.846Z,17.99
2023-09-01T22:42:06.850Z,17.96
2023-09-01T22:44:34.292Z,17.92
2023-09-01T22:47:03.278Z,17.89
2023-09-01T22:49:33.622Z,17.85
2023-09-01T22:52:00.854Z,17.83
2023-09-01T22:54:28.100Z,17.79
2023-09-01T22:56:55.162Z,17.75
2023-09-01T22:59:22.517Z,17.72
2023-09-01T23:01:51.138Z,17.70
2023-09-01T23:04:23.502Z,17.69
2023-09-01T23:06:54.502Z,17.71
2023-09-01T23:09:23.758Z,17.72
2023-09-01T23:11:54.660Z,17.71
2023-09-01T23:14:23.840Z,17.69
2023-09-01T23:16:54.928Z,17.67
2023-09-01T23:19:24.951Z,17.67
2023-09-01T23:21:54.906Z,17.67
2023-09-01T23:24:25.269Z,17.65
2023-09-01T23:26:56.683Z,17.65
2023-09-01T23:29:29.081Z,17.66
2023-09-01T23:32:08.790Z,17.67
2023-09-01T23:34:41.330Z,17.66
2023-09-01T23:37:11.421Z,17.61
2023-09-01T23:39:49.975Z,17.56
2023-09-01T23:42:21.564Z,17.57
2023-09-01T23:44:52.012Z,17.55
2023-09-01T23:47:21.770Z,17.53
2023-09-01T23:49:49.583Z,17.51
2023-09-01T23:52:16.964Z,17.48
2023-09-01T23:54:45.207Z,17.44
2023-09-01T23:57:14.668Z,17.40
2023-09-01T23:59:45.344Z,17.38
